Rose Valley, Nevada
Current Conditions -  °F | °C
As of 10:53 AM on Thursday 23 Oct 2014 (Local Time) from KELY Reporting Station
Clear Clear  
Wind Chill: 68°   Ceiling: Unl
Heat Index: 68°   Visibility: 10mi
Dew Point: 22°   Wind: 5mph
Humidity: 17%   Direction: NA
Pressure: 30.2"   Gusts: NA
Location:  38.2635°N, 114.484°W
Report Text: KELY 231753Z AUTO VRB04KT 10SM CLR 20/M06 A3020 RMK AO2 SLP161 T02001056 10200 20033 58001
Loading
Personal Weather Stations






























Interactive Weather Map
Tropical Storm Tracking
New forecast layout! Learn more

10-Day Weather Forecast

Advertisements
Track Severe Weather on mobile